sensor_id;sensor_type;location;lat;lon;timestamp;P1;durP1;ratioP1;P2;durP2;ratioP2
50851;SDS011;43953;45.508;-122.806;2023-05-07T00:00:15;1.00;;;0.95;;
50851;SDS011;43953;45.508;-122.806;2023-05-07T00:00:49;1.38;;;0.93;;
50851;SDS011;43953;45.508;-122.806;2023-05-07T00:01:22;1.70;;;0.98;;
50851;SDS011;43953;45.508;-122.806;2023-05-07T00:01:53;1.35;;;1.00;;
50851;SDS011;43953;45.508;-122.806;2023-05-07T00:02:25;1.88;;;1.30;;
50851;SDS011;43953;45.508;-122.806;2023-05-07T00:02:57;1.23;;;1.00;;
50851;SDS011;43953;45.508;-122.806;2023-05-07T00:03:28;2.45;;;1.05;;
50851;SDS011;43953;45.508;-122.806;2023-05-07T00:04:00;1.88;;;1.23;;
50851;SDS011;43953;45.508;-122.806;2023-05-07T00:04:33;1.08;;;0.98;;
50851;SDS011;43953;45.508;-122.806;2023-05-07T00:05:08;2.25;;;1.20;;
50851;SDS011;43953;45.508;-122.806;2023-05-07T00:05:40;1.98;;;1.00;;
50851;SDS011;43953;45.508;-122.806;2023-05-07T00:06:12;1.63;;;1.00;;
50851;SDS011;43953;45.508;-122.806;2023-05-07T00:06:44;1.85;;;1.20;;
50851;SDS011;43953;45.508;-122.806;2023-05-07T00:07:15;1.20;;;1.10;;
50851;SDS011;43953;45.508;-122.806;2023-05-07T00:07:47;3.53;;;1.10;;
50851;SDS011;43953;45.508;-122.806;2023-05-07T00:08:19;1.20;;;1.10;;
50851;SDS011;43953;45.508;-122.806;2023-05-07T00:08:51;1.20;;;1.10;;
50851;SDS011;43953;45.508;-122.806;2023-05-07T00:09:23;1.50;;;1.02;;
50851;SDS011;43953;45.508;-122.806;2023-05-07T00:09:54;1.58;;;1.10;;
50851;SDS011;43953;45.508;-122.806;2023-05-07T00:10:26;1.25;;;1.10;;
50851;SDS011;43953;45.508;-122.806;2023-05-07T00:10:58;1.15;;;1.02;;
50851;SDS011;43953;45.508;-122.806;2023-05-07T00:11:29;1.25;;;1.15;;
50851;SDS011;43953;45.508;-122.806;2023-05-07T00:12:01;1.35;;;1.23;;
50851;SDS011;43953;45.508;-122.806;2023-05-07T00:12:33;1.25;;;1.05;;
50851;SDS011;43953;45.508;-122.806;2023-05-07T00:13:05;1.75;;;1.20;;
50851;SDS011;43953;45.508;-122.806;2023-05-07T00:13:36;1.60;;;1.00;;
50851;SDS011;43953;45.508;-122.806;2023-05-07T00:14:08;1.15;;;1.00;;
50851;SDS011;43953;45.508;-122.806;2023-05-07T00:14:40;1.08;;;1.00;;
50851;SDS011;43953;45.508;-122.806;2023-05-07T00:15:12;2.05;;;1.00;;
50851;SDS011;43953;45.508;-122.806;2023-05-07T00:15:43;1.00;;;0.93;;
50851;SDS011;43953;45.508;-122.806;2023-05-07T00:16:15;1.13;;;1.10;;
50851;SDS011;43953;45.508;-122.806;2023-05-07T00:16:47;1.27;;;1.13;;
50851;SDS011;43953;45.508;-122.806;2023-05-07T00:17:18;1.75;;;1.33;;
50851;SDS011;43953;45.508;-122.806;2023-05-07T00:17:50;1.13;;;0.95;;
50851;SDS011;43953;45.508;-122.806;2023-05-07T00:18:22;1.48;;;1.15;;
50851;SDS011;43953;45.508;-122.806;2023-05-07T00:18:54;1.27;;;1.05;;
50851;SDS011;43953;45.508;-122.806;2023-05-07T00:19:26;1.30;;;0.90;;
50851;SDS011;43953;45.508;-122.806;2023-05-07T00:19:57;1.67;;;1.00;;
50851;SDS011;43953;45.508;-122.806;2023-05-07T00:20:29;1.45;;;1.08;;
50851;SDS011;43953;45.508;-122.806;2023-05-07T00:21:01;0.98;;;0.95;;
50851;SDS011;43953;45.508;-122.806;2023-05-07T00:21:33;2.40;;;1.10;;
50851;SDS011;43953;45.508;-122.806;2023-05-07T00:22:04;2.30;;;0.90;;
50851;SDS011;43953;45.508;-122.806;2023-05-07T00:22:36;1.13;;;1.10;;
50851;SDS011;43953;45.508;-122.806;2023-05-07T00:23:08;1.38;;;1.10;;
50851;SDS011;43953;45.508;-122.806;2023-05-07T00:23:40;1.75;;;1.35;;
50851;SDS011;43953;45.508;-122.806;2023-05-07T00:24:12;1.33;;;1.00;;
50851;SDS011;43953;45.508;-122.806;2023-05-07T00:24:44;1.40;;;1.23;;
50851;SDS011;43953;45.508;-122.806;2023-05-07T00:25:15;1.17;;;1.00;;
50851;SDS011;43953;45.508;-122.806;2023-05-07T00:25:47;2.33;;;1.30;;
50851;SDS011;43953;45.508;-122.806;2023-05-07T00:26:19;1.30;;;1.20;;
50851;SDS011;43953;45.508;-122.806;2023-05-07T00:26:51;1.30;;;1.20;;
50851;SDS011;43953;45.508;-122.806;2023-05-07T00:27:23;2.22;;;1.10;;
50851;SDS011;43953;45.508;-122.806;2023-05-07T00:27:56;1.38;;;1.10;;
50851;SDS011;43953;45.508;-122.806;2023-05-07T00:28:33;1.40;;;1.10;;
50851;SDS011;43953;45.508;-122.806;2023-05-07T00:29:05;1.33;;;1.10;;
50851;SDS011;43953;45.508;-122.806;2023-05-07T00:29:37;0.98;;;0.88;;
50851;SDS011;43953;45.508;-122.806;2023-05-07T00:30:08;1.13;;;1.02;;
50851;SDS011;43953;45.508;-122.806;2023-05-07T00:30:41;1.40;;;1.00;;
50851;SDS011;43953;45.508;-122.806;2023-05-07T00:31:12;1.30;;;1.20;;
50851;SDS011;43953;45.508;-122.806;2023-05-07T00:31:44;1.60;;;1.08;;
50851;SDS011;43953;45.508;-122.806;2023-05-07T00:32:16;1.17;;;1.05;;
50851;SDS011;43953;45.508;-122.806;2023-05-07T00:32:47;1.17;;;1.00;;
50851;SDS011;43953;45.508;-122.806;2023-05-07T00:33:19;2.45;;;1.00;;
50851;SDS011;43953;45.508;-122.806;2023-05-07T00:33:51;1.13;;;1.00;;
50851;SDS011;43953;45.508;-122.806;2023-05-07T00:34:23;1.05;;;0.98;;
50851;SDS011;43953;45.508;-122.806;2023-05-07T00:34:55;0.80;;;0.80;;
50851;SDS011;43953;45.508;-122.806;2023-05-07T00:35:27;1.20;;;1.10;;
50851;SDS011;43953;45.508;-122.806;2023-05-07T00:36:00;1.10;;;1.00;;
50851;SDS011;43953;45.508;-122.806;2023-05-07T00:36:32;1.30;;;1.20;;
50851;SDS011;43953;45.508;-122.806;2023-05-07T00:37:04;2.38;;;1.10;;
50851;SDS011;43953;45.508;-122.806;2023-05-07T00:37:38;1.10;;;0.90;;
50851;SDS011;43953;45.508;-122.806;2023-05-07T00:38:09;1.65;;;0.90;;
50851;SDS011;43953;45.508;-122.806;2023-05-07T00:38:41;1.90;;;1.00;;
50851;SDS011;43953;45.508;-122.806;2023-05-07T00:39:13;1.00;;;1.00;;
50851;SDS011;43953;45.508;-122.806;2023-05-07T00:39:44;1.00;;;0.73;;
50851;SDS011;43953;45.508;-122.806;2023-05-07T00:40:16;0.80;;;0.80;;
50851;SDS011;43953;45.508;-122.806;2023-05-07T00:40:48;1.15;;;1.00;;
50851;SDS011;43953;45.508;-122.806;2023-05-07T00:41:20;0.80;;;0.80;;
50851;SDS011;43953;45.508;-122.806;2023-05-07T00:41:52;1.63;;;0.90;;
50851;SDS011;43953;45.508;-122.806;2023-05-07T00:42:23;1.33;;;0.85;;
50851;SDS011;43953;45.508;-122.806;2023-05-07T00:42:55;2.08;;;1.00;;
50851;SDS011;43953;45.508;-122.806;2023-05-07T00:43:28;1.10;;;1.00;;
50851;SDS011;43953;45.508;-122.806;2023-05-07T00:44:00;1.10;;;1.00;;
50851;SDS011;43953;45.508;-122.806;2023-05-07T00:44:33;0.80;;;0.80;;
50851;SDS011;43953;45.508;-122.806;2023-05-07T00:45:05;0.98;;;0.80;;
50851;SDS011;43953;45.508;-122.806;2023-05-07T00:45:38;2.25;;;0.80;;
50851;SDS011;43953;45.508;-122.806;2023-05-07T00:46:10;1.42;;;0.98;;
50851;SDS011;43953;45.508;-122.806;2023-05-07T00:46:42;1.70;;;0.80;;
50851;SDS011;43953;45.508;-122.806;2023-05-07T00:47:15;2.00;;;1.00;;
50851;SDS011;43953;45.508;-122.806;2023-05-07T00:47:47;1.13;;;0.80;;
50851;SDS011;43953;45.508;-122.806;2023-05-07T00:48:19;0.80;;;0.80;;
50851;SDS011;43953;45.508;-122.806;2023-05-07T00:48:51;0.80;;;0.80;;
50851;SDS011;43953;45.508;-122.806;2023-05-07T00:49:32;0.90;;;0.90;;
50851;SDS011;43953;45.508;-122.806;2023-05-07T00:50:09;0.80;;;0.80;;
50851;SDS011;43953;45.508;-122.806;2023-05-07T00:50:41;0.68;;;0.68;;
50851;SDS011;43953;45.508;-122.806;2023-05-07T00:51:13;0.80;;;0.80;;
50851;SDS011;43953;45.508;-122.806;2023-05-07T00:51:45;0.73;;;0.70;;
50851;SDS011;43953;45.508;-122.806;2023-05-07T00:52:18;1.40;;;1.05;;
50851;SDS011;43953;45.508;-122.806;2023-05-07T00:52:52;1.45;;;0.90;;
50851;SDS011;43953;45.508;-122.806;2023-05-07T00:53:24;0.80;;;0.80;;
50851;SDS011;43953;45.508;-122.806;2023-05-07T00:53:57;0.80;;;0.80;;
50851;SDS011;43953;45.508;-122.806;2023-05-07T00:54:33;0.90;;;0.82;;
50851;SDS011;43953;45.508;-122.806;2023-05-07T00:55:06;0.73;;;0.73;;
50851;SDS011;43953;45.508;-122.806;2023-05-07T00:55:38;0.82;;;0.82;;
50851;SDS011;43953;45.508;-122.806;2023-05-07T00:56:10;0.68;;;0.68;;
50851;SDS011;43953;45.508;-122.806;2023-05-07T00:56:42;0.70;;;0.70;;
50851;SDS011;43953;45.508;-122.806;2023-05-07T00:57:15;0.70;;;0.70;;
50851;SDS011;43953;45.508;-122.806;2023-05-07T00:57:47;0.80;;;0.80;;
50851;SDS011;43953;45.508;-122.806;2023-05-07T00:58:20;0.80;;;0.70;;
50851;SDS011;43953;45.508;-122.806;2023-05-07T00:58:53;0.88;;;0.77;;
50851;SDS011;43953;45.508;-122.806;2023-05-07T00:59:25;0.90;;;0.90;;
50851;SDS011;43953;45.508;-122.806;2023-05-07T00:59:57;1.17;;;0.77;;
50851;SDS011;43953;45.508;-122.806;2023-05-07T01:00:28;0.85;;;0.80;;
50851;SDS011;43953;45.508;-122.806;2023-05-07T01:01:00;0.85;;;0.70;;
50851;SDS011;43953;45.508;-122.806;2023-05-07T01:01:32;0.90;;;0.90;;
50851;SDS011;43953;45.508;-122.806;2023-05-07T01:02:04;1.17;;;0.88;;
50851;SDS011;43953;45.508;-122.806;2023-05-07T01:02:36;1.42;;;0.85;;
50851;SDS011;43953;45.508;-122.806;2023-05-07T01:03:07;0.95;;;0.90;;
50851;SDS011;43953;45.508;-122.806;2023-05-07T01:03:39;0.70;;;0.70;;
50851;SDS011;43953;45.508;-122.806;2023-05-07T01:04:11;1.23;;;0.90;;
50851;SDS011;43953;45.508;-122.806;2023-05-07T01:04:43;1.10;;;0.80;;
50851;SDS011;43953;45.508;-122.806;2023-05-07T01:05:16;0.95;;;0.88;;
50851;SDS011;43953;45.508;-122.806;2023-05-07T01:05:49;0.80;;;0.80;;
50851;SDS011;43953;45.508;-122.806;2023-05-07T01:06:23;0.60;;;0.60;;
50851;SDS011;43953;45.508;-122.806;2023-05-07T01:06:58;1.88;;;0.80;;
50851;SDS011;43953;45.508;-122.806;2023-05-07T01:07:32;1.65;;;0.80;;
50851;SDS011;43953;45.508;-122.806;2023-05-07T01:08:05;1.00;;;0.85;;
50851;SDS011;43953;45.508;-122.806;2023-05-07T01:08:37;2.13;;;0.80;;
50851;SDS011;43953;45.508;-122.806;2023-05-07T01:09:11;1.00;;;0.80;;
50851;SDS011;43953;45.508;-122.806;2023-05-07T01:09:43;0.70;;;0.70;;
50851;SDS011;43953;45.508;-122.806;2023-05-07T01:10:15;1.25;;;0.80;;
50851;SDS011;43953;45.508;-122.806;2023-05-07T01:10:49;1.83;;;0.93;;
50851;SDS011;43953;45.508;-122.806;2023-05-07T01:11:21;1.60;;;0.90;;
50851;SDS011;43953;45.508;-122.806;2023-05-07T01:11:54;1.10;;;1.00;;
50851;SDS011;43953;45.508;-122.806;2023-05-07T01:12:28;0.70;;;0.70;;
50851;SDS011;43953;45.508;-122.806;2023-05-07T01:13:00;1.13;;;1.00;;
50851;SDS011;43953;45.508;-122.806;2023-05-07T01:13:33;0.90;;;0.90;;
50851;SDS011;43953;45.508;-122.806;2023-05-07T01:14:06;1.75;;;0.73;;
50851;SDS011;43953;45.508;-122.806;2023-05-07T01:14:39;1.40;;;0.63;;
50851;SDS011;43953;45.508;-122.806;2023-05-07T01:15:12;2.38;;;0.88;;
50851;SDS011;43953;45.508;-122.806;2023-05-07T01:15:44;0.77;;;0.77;;
50851;SDS011;43953;45.508;-122.806;2023-05-07T01:16:16;1.02;;;0.80;;
50851;SDS011;43953;45.508;-122.806;2023-05-07T01:16:48;2.47;;;0.90;;
50851;SDS011;43953;45.508;-122.806;2023-05-07T01:17:21;1.20;;;0.80;;
50851;SDS011;43953;45.508;-122.806;2023-05-07T01:17:56;1.65;;;1.10;;
50851;SDS011;43953;45.508;-122.806;2023-05-07T01:18:28;1.23;;;0.98;;
50851;SDS011;43953;45.508;-122.806;2023-05-07T01:19:00;1.00;;;0.90;;
50851;SDS011;43953;45.508;-122.806;2023-05-07T01:19:32;0.90;;;0.90;;
50851;SDS011;43953;45.508;-122.806;2023-05-07T01:20:05;0.93;;;0.90;;
50851;SDS011;43953;45.508;-122.806;2023-05-07T01:20:38;1.83;;;1.15;;
50851;SDS011;43953;45.508;-122.806;2023-05-07T01:21:10;1.10;;;1.00;;
50851;SDS011;43953;45.508;-122.806;2023-05-07T01:21:45;0.80;;;0.80;;
50851;SDS011;43953;45.508;-122.806;2023-05-07T01:22:31;1.27;;;0.90;;
50851;SDS011;43953;45.508;-122.806;2023-05-07T01:23:05;1.05;;;0.80;;
50851;SDS011;43953;45.508;-122.806;2023-05-07T01:23:38;1.30;;;1.20;;
50851;SDS011;43953;45.508;-122.806;2023-05-07T01:24:11;1.02;;;0.77;;
50851;SDS011;43953;45.508;-122.806;2023-05-07T01:24:43;1.73;;;0.80;;
50851;SDS011;43953;45.508;-122.806;2023-05-07T01:25:15;1.13;;;0.90;;
50851;SDS011;43953;45.508;-122.806;2023-05-07T01:25:51;1.02;;;0.80;;
50851;SDS011;43953;45.508;-122.806;2023-05-07T01:26:23;1.27;;;0.80;;
50851;SDS011;43953;45.508;-122.806;2023-05-07T01:26:55;0.60;;;0.60;;
50851;SDS011;43953;45.508;-122.806;2023-05-07T01:27:27;0.65;;;0.65;;
50851;SDS011;43953;45.508;-122.806;2023-05-07T01:28:02;1.00;;;0.70;;
50851;SDS011;43953;45.508;-122.806;2023-05-07T01:28:33;0.60;;;0.60;;
50851;SDS011;43953;45.508;-122.806;2023-05-07T01:29:05;0.95;;;0.77;;
50851;SDS011;43953;45.508;-122.806;2023-05-07T01:29:37;1.08;;;0.80;;
50851;SDS011;43953;45.508;-122.806;2023-05-07T01:30:09;0.63;;;0.63;;
50851;SDS011;43953;45.508;-122.806;2023-05-07T01:30:41;0.95;;;0.68;;
50851;SDS011;43953;45.508;-122.806;2023-05-07T01:31:16;1.05;;;0.80;;
50851;SDS011;43953;45.508;-122.806;2023-05-07T01:31:48;0.63;;;0.63;;
50851;SDS011;43953;45.508;-122.806;2023-05-07T01:32:33;0.77;;;0.75;;
50851;SDS011;43953;45.508;-122.806;2023-05-07T01:33:13;2.88;;;0.80;;
50851;SDS011;43953;45.508;-122.806;2023-05-07T01:33:49;1.48;;;0.70;;
50851;SDS011;43953;45.508;-122.806;2023-05-07T01:34:23;2.25;;;0.73;;
50851;SDS011;43953;45.508;-122.806;2023-05-07T01:34:58;0.75;;;0.70;;
50851;SDS011;43953;45.508;-122.806;2023-05-07T01:35:32;1.00;;;0.90;;
50851;SDS011;43953;45.508;-122.806;2023-05-07T01:36:08;1.27;;;0.70;;
50851;SDS011;43953;45.508;-122.806;2023-05-07T01:36:41;1.27;;;0.70;;
50851;SDS011;43953;45.508;-122.806;2023-05-07T01:37:15;0.70;;;0.60;;
50851;SDS011;43953;45.508;-122.806;2023-05-07T01:37:47;1.08;;;0.70;;
50851;SDS011;43953;45.508;-122.806;2023-05-07T01:38:21;0.70;;;0.63;;
50851;SDS011;43953;45.508;-122.806;2023-05-07T01:38:54;1.77;;;0.70;;
50851;SDS011;43953;45.508;-122.806;2023-05-07T01:39:29;1.88;;;0.73;;
50851;SDS011;43953;45.508;-122.806;2023-05-07T01:40:01;1.15;;;0.77;;
50851;SDS011;43953;45.508;-122.806;2023-05-07T01:40:34;0.88;;;0.70;;
50851;SDS011;43953;45.508;-122.806;2023-05-07T01:41:06;0.98;;;0.80;;
50851;SDS011;43953;45.508;-122.806;2023-05-07T01:41:38;1.65;;;0.80;;
50851;SDS011;43953;45.508;-122.806;2023-05-07T01:42:10;1.42;;;1.00;;
50851;SDS011;43953;45.508;-122.806;2023-05-07T01:42:43;2.42;;;0.90;;
50851;SDS011;43953;45.508;-122.806;2023-05-07T01:43:14;0.90;;;0.70;;
50851;SDS011;43953;45.508;-122.806;2023-05-07T01:43:47;1.48;;;0.88;;
50851;SDS011;43953;45.508;-122.806;2023-05-07T01:44:19;0.85;;;0.60;;
50851;SDS011;43953;45.508;-122.806;2023-05-07T01:44:52;0.85;;;0.70;;
50851;SDS011;43953;45.508;-122.806;2023-05-07T01:45:24;0.70;;;0.70;;
50851;SDS011;43953;45.508;-122.806;2023-05-07T01:45:57;2.20;;;1.27;;
50851;SDS011;43953;45.508;-122.806;2023-05-07T01:46:29;1.80;;;0.80;;
50851;SDS011;43953;45.508;-122.806;2023-05-07T01:47:02;0.57;;;0.57;;
50851;SDS011;43953;45.508;-122.806;2023-05-07T01:47:38;1.58;;;0.80;;
50851;SDS011;43953;45.508;-122.806;2023-05-07T01:48:10;1.50;;;0.60;;
50851;SDS011;43953;45.508;-122.806;2023-05-07T01:48:44;1.05;;;0.70;;
50851;SDS011;43953;45.508;-122.806;2023-05-07T01:49:16;0.90;;;0.70;;
50851;SDS011;43953;45.508;-122.806;2023-05-07T01:49:49;0.77;;;0.77;;
50851;SDS011;43953;45.508;-122.806;2023-05-07T01:50:21;0.68;;;0.60;;
50851;SDS011;43953;45.508;-122.806;2023-05-07T01:50:54;0.70;;;0.60;;
50851;SDS011;43953;45.508;-122.806;2023-05-07T01:51:26;0.75;;;0.70;;
50851;SDS011;43953;45.508;-122.806;2023-05-07T01:51:58;1.42;;;0.75;;
50851;SDS011;43953;45.508;-122.806;2023-05-07T01:52:30;1.85;;;0.70;;
50851;SDS011;43953;45.508;-122.806;2023-05-07T01:53:02;0.98;;;0.70;;
50851;SDS011;43953;45.508;-122.806;2023-05-07T01:53:37;1.45;;;0.70;;
50851;SDS011;43953;45.508;-122.806;2023-05-07T01:54:11;0.73;;;0.70;;
50851;SDS011;43953;45.508;-122.806;2023-05-07T01:54:43;0.88;;;0.70;;
50851;SDS011;43953;45.508;-122.806;2023-05-07T01:55:14;1.60;;;0.93;;
50851;SDS011;43953;45.508;-122.806;2023-05-07T01:55:46;2.25;;;0.75;;
50851;SDS011;43953;45.508;-122.806;2023-05-07T01:56:18;0.85;;;0.70;;
50851;SDS011;43953;45.508;-122.806;2023-05-07T01:56:50;1.58;;;0.80;;
50851;SDS011;43953;45.508;-122.806;2023-05-07T01:57:22;1.75;;;0.70;;
50851;SDS011;43953;45.508;-122.806;2023-05-07T01:57:54;0.68;;;0.68;;
50851;SDS011;43953;45.508;-122.806;2023-05-07T01:58:26;1.80;;;0.80;;
50851;SDS011;43953;45.508;-122.806;2023-05-07T01:58:57;1.05;;;0.95;;
50851;SDS011;43953;45.508;-122.806;2023-05-07T01:59:29;1.25;;;0.75;;
50851;SDS011;43953;45.508;-122.806;2023-05-07T02:00:01;2.15;;;0.70;;
50851;SDS011;43953;45.508;-122.806;2023-05-07T02:00:36;1.13;;;0.80;;
50851;SDS011;43953;45.508;-122.806;2023-05-07T02:01:08;1.02;;;0.75;;
50851;SDS011;43953;45.508;-122.806;2023-05-07T02:01:40;0.50;;;0.50;;
50851;SDS011;43953;45.508;-122.806;2023-05-07T02:02:12;1.33;;;0.88;;
50851;SDS011;43953;45.508;-122.806;2023-05-07T02:02:43;0.80;;;0.80;;
50851;SDS011;43953;45.508;-122.806;2023-05-07T02:03:15;1.42;;;0.65;;
50851;SDS011;43953;45.508;-122.806;2023-05-07T02:03:47;0.98;;;0.80;;
50851;SDS011;43953;45.508;-122.806;2023-05-07T02:04:19;2.53;;;0.80;;
50851;SDS011;43953;45.508;-122.806;2023-05-07T02:04:51;0.77;;;0.60;;
50851;SDS011;43953;45.508;-122.806;2023-05-07T02:05:23;1.73;;;0.73;;
50851;SDS011;43953;45.508;-122.806;2023-05-07T02:05:55;1.00;;;0.75;;
50851;SDS011;43953;45.508;-122.806;2023-05-07T02:06:26;1.55;;;0.80;;
50851;SDS011;43953;45.508;-122.806;2023-05-07T02:06:58;2.20;;;0.70;;
50851;SDS011;43953;45.508;-122.806;2023-05-07T02:07:30;0.95;;;0.70;;
50851;SDS011;43953;45.508;-122.806;2023-05-07T02:08:01;2.33;;;0.82;;
50851;SDS011;43953;45.508;-122.806;2023-05-07T02:08:33;1.63;;;0.70;;
50851;SDS011;43953;45.508;-122.806;2023-05-07T02:09:05;0.93;;;0.70;;
50851;SDS011;43953;45.508;-122.806;2023-05-07T02:09:37;1.60;;;0.80;;
50851;SDS011;43953;45.508;-122.806;2023-05-07T02:10:09;2.03;;;0.80;;
50851;SDS011;43953;45.508;-122.806;2023-05-07T02:10:41;0.95;;;0.88;;
50851;SDS011;43953;45.508;-122.806;2023-05-07T02:11:13;0.80;;;0.80;;
50851;SDS011;43953;45.508;-122.806;2023-05-07T02:11:44;0.60;;;0.60;;
50851;SDS011;43953;45.508;-122.806;2023-05-07T02:12:16;1.13;;;0.73;;
50851;SDS011;43953;45.508;-122.806;2023-05-07T02:12:48;1.92;;;0.70;;
50851;SDS011;43953;45.508;-122.806;2023-05-07T02:13:19;1.70;;;0.70;;
50851;SDS011;43953;45.508;-122.806;2023-05-07T02:13:52;1.10;;;0.60;;
50851;SDS011;43953;45.508;-122.806;2023-05-07T02:14:24;0.70;;;0.70;;
50851;SDS011;43953;45.508;-122.806;2023-05-07T02:14:56;0.80;;;0.80;;
50851;SDS011;43953;45.508;-122.806;2023-05-07T02:15:28;1.45;;;0.90;;
50851;SDS011;43953;45.508;-122.806;2023-05-07T02:16:00;1.58;;;0.82;;
50851;SDS011;43953;45.508;-122.806;2023-05-07T02:16:33;0.98;;;0.70;;
50851;SDS011;43953;45.508;-122.806;2023-05-07T02:17:04;1.52;;;0.63;;
50851;SDS011;43953;45.508;-122.806;2023-05-07T02:17:39;1.00;;;0.77;;
50851;SDS011;43953;45.508;-122.806;2023-05-07T02:18:29;1.05;;;0.60;;
50851;SDS011;43953;45.508;-122.806;2023-05-07T02:19:02;1.80;;;0.80;;
50851;SDS011;43953;45.508;-122.806;2023-05-07T02:19:34;2.70;;;0.95;;
50851;SDS011;43953;45.508;-122.806;2023-05-07T02:20:06;2.15;;;0.80;;
50851;SDS011;43953;45.508;-122.806;2023-05-07T02:20:43;1.00;;;0.75;;
50851;SDS011;43953;45.508;-122.806;2023-05-07T02:21:15;4.38;;;1.10;;
50851;SDS011;43953;45.508;-122.806;2023-05-07T02:21:47;3.63;;;1.20;;
50851;SDS011;43953;45.508;-122.806;2023-05-07T02:22:19;4.93;;;1.23;;
50851;SDS011;43953;45.508;-122.806;2023-05-07T02:22:50;2.53;;;1.00;;
50851;SDS011;43953;45.508;-122.806;2023-05-07T02:23:22;2.35;;;0.93;;
50851;SDS011;43953;45.508;-122.806;2023-05-07T02:23:54;2.30;;;0.95;;
50851;SDS011;43953;45.508;-122.806;2023-05-07T02:24:26;3.78;;;1.00;;
50851;SDS011;43953;45.508;-122.806;2023-05-07T02:24:57;5.55;;;1.00;;
50851;SDS011;43953;45.508;-122.806;2023-05-07T02:25:29;4.85;;;1.20;;
50851;SDS011;43953;45.508;-122.806;2023-05-07T02:26:01;1.77;;;0.68;;
50851;SDS011;43953;45.508;-122.806;2023-05-07T02:26:33;4.18;;;1.20;;
50851;SDS011;43953;45.508;-122.806;2023-05-07T02:27:05;2.25;;;0.77;;
50851;SDS011;43953;45.508;-122.806;2023-05-07T02:27:36;4.53;;;1.02;;
50851;SDS011;43953;45.508;-122.806;2023-05-07T02:28:08;1.65;;;0.85;;
50851;SDS011;43953;45.508;-122.806;2023-05-07T02:28:40;1.58;;;0.85;;
50851;SDS011;43953;45.508;-122.806;2023-05-07T02:29:12;2.90;;;0.90;;
50851;SDS011;43953;45.508;-122.806;2023-05-07T02:29:43;3.10;;;0.70;;
50851;SDS011;43953;45.508;-122.806;2023-05-07T02:30:15;2.03;;;0.80;;
50851;SDS011;43953;45.508;-122.806;2023-05-07T02:30:47;2.17;;;1.00;;
50851;SDS011;43953;45.508;-122.806;2023-05-07T02:31:19;1.17;;;0.55;;
50851;SDS011;43953;45.508;-122.806;2023-05-07T02:31:50;1.15;;;0.60;;
50851;SDS011;43953;45.508;-122.806;2023-05-07T02:32:23;1.50;;;0.50;;
50851;SDS011;43953;45.508;-122.806;2023-05-07T02:32:55;1.08;;;0.68;;
50851;SDS011;43953;45.508;-122.806;2023-05-07T02:33:27;1.95;;;0.70;;
50851;SDS011;43953;45.508;-122.806;2023-05-07T02:33:58;2.17;;;0.80;;
50851;SDS011;43953;45.508;-122.806;2023-05-07T02:34:31;1.88;;;0.70;;
50851;SDS011;43953;45.508;-122.806;2023-05-07T02:35:03;0.85;;;0.60;;
50851;SDS011;43953;45.508;-122.806;2023-05-07T02:35:36;1.38;;;0.50;;
50851;SDS011;43953;45.508;-122.806;2023-05-07T02:36:11;0.98;;;0.57;;
50851;SDS011;43953;45.508;-122.806;2023-05-07T02:36:43;2.00;;;0.60;;
50851;SDS011;43953;45.508;-122.806;2023-05-07T02:37:15;1.23;;;0.63;;
50851;SDS011;43953;45.508;-122.806;2023-05-07T02:37:47;1.02;;;0.60;;
50851;SDS011;43953;45.508;-122.806;2023-05-07T02:38:18;0.60;;;0.60;;
50851;SDS011;43953;45.508;-122.806;2023-05-07T02:38:50;1.20;;;0.60;;
50851;SDS011;43953;45.508;-122.806;2023-05-07T02:39:22;1.00;;;0.70;;
50851;SDS011;43953;45.508;-122.806;2023-05-07T02:39:53;1.42;;;0.70;;
50851;SDS011;43953;45.508;-122.806;2023-05-07T02:40:25;0.70;;;0.60;;
50851;SDS011;43953;45.508;-122.806;2023-05-07T02:40:57;0.63;;;0.63;;
50851;SDS011;43953;45.508;-122.806;2023-05-07T02:41:28;0.93;;;0.60;;
50851;SDS011;43953;45.508;-122.806;2023-05-07T02:42:00;0.90;;;0.60;;
50851;SDS011;43953;45.508;-122.806;2023-05-07T02:42:33;0.85;;;0.60;;
50851;SDS011;43953;45.508;-122.806;2023-05-07T02:43:05;1.60;;;0.60;;
50851;SDS011;43953;45.508;-122.806;2023-05-07T02:43:36;0.82;;;0.68;;
50851;SDS011;43953;45.508;-122.806;2023-05-07T02:44:08;0.98;;;0.68;;
50851;SDS011;43953;45.508;-122.806;2023-05-07T02:44:40;1.05;;;0.60;;
50851;SDS011;43953;45.508;-122.806;2023-05-07T02:45:11;0.95;;;0.70;;
50851;SDS011;43953;45.508;-122.806;2023-05-07T02:45:43;1.75;;;0.60;;
50851;SDS011;43953;45.508;-122.806;2023-05-07T02:46:15;1.42;;;0.57;;
50851;SDS011;43953;45.508;-122.806;2023-05-07T02:46:47;0.93;;;0.57;;
50851;SDS011;43953;45.508;-122.806;2023-05-07T02:47:18;2.15;;;0.63;;
50851;SDS011;43953;45.508;-122.806;2023-05-07T02:47:50;0.50;;;0.50;;
50851;SDS011;43953;45.508;-122.806;2023-05-07T02:48:22;1.83;;;0.60;;
50851;SDS011;43953;45.508;-122.806;2023-05-07T02:48:54;0.68;;;0.60;;
50851;SDS011;43953;45.508;-122.806;2023-05-07T02:49:26;0.65;;;0.65;;
50851;SDS011;43953;45.508;-122.806;2023-05-07T02:49:57;1.48;;;0.70;;
50851;SDS011;43953;45.508;-122.806;2023-05-07T02:50:29;1.58;;;0.60;;
50851;SDS011;43953;45.508;-122.806;2023-05-07T02:51:01;0.70;;;0.60;;
50851;SDS011;43953;45.508;-122.806;2023-05-07T02:51:34;0.75;;;0.60;;
50851;SDS011;43953;45.508;-122.806;2023-05-07T02:52:05;1.17;;;0.50;;
50851;SDS011;43953;45.508;-122.806;2023-05-07T02:52:38;0.70;;;0.40;;
50851;SDS011;43953;45.508;-122.806;2023-05-07T02:53:09;1.85;;;0.68;;
50851;SDS011;43953;45.508;-122.806;2023-05-07T02:53:41;0.80;;;0.70;;
50851;SDS011;43953;45.508;-122.806;2023-05-07T02:54:13;0.90;;;0.80;;
50851;SDS011;43953;45.508;-122.806;2023-05-07T02:54:44;1.70;;;0.70;;
50851;SDS011;43953;45.508;-122.806;2023-05-07T02:55:16;0.98;;;0.75;;
50851;SDS011;43953;45.508;-122.806;2023-05-07T02:55:48;0.70;;;0.70;;
50851;SDS011;43953;45.508;-122.806;2023-05-07T02:56:20;0.70;;;0.70;;
50851;SDS011;43953;45.508;-122.806;2023-05-07T02:56:51;1.27;;;0.80;;
50851;SDS011;43953;45.508;-122.806;2023-05-07T02:57:23;1.92;;;0.90;;
50851;SDS011;43953;45.508;-122.806;2023-05-07T02:57:55;0.95;;;0.70;;
50851;SDS011;43953;45.508;-122.806;2023-05-07T02:58:27;1.45;;;0.57;;
50851;SDS011;43953;45.508;-122.806;2023-05-07T02:58:59;0.77;;;0.77;;
50851;SDS011;43953;45.508;-122.806;2023-05-07T02:59:31;0.88;;;0.73;;
50851;SDS011;43953;45.508;-122.806;2023-05-07T03:00:15;0.75;;;0.70;;
50851;SDS011;43953;45.508;-122.806;2023-05-07T03:00:48;1.25;;;0.90;;
50851;SDS011;43953;45.508;-122.806;2023-05-07T03:01:20;1.42;;;0.90;;
50851;SDS011;43953;45.508;-122.806;2023-05-07T03:01:52;2.15;;;0.90;;
50851;SDS011;43953;45.508;-122.806;2023-05-07T03:02:24;0.90;;;0.70;;
50851;SDS011;43953;45.508;-122.806;2023-05-07T03:02:56;1.00;;;0.70;;
50851;SDS011;43953;45.508;-122.806;2023-05-07T03:03:27;0.93;;;0.60;;
50851;SDS011;43953;45.508;-122.806;2023-05-07T03:03:59;1.63;;;0.70;;
50851;SDS011;43953;45.508;-122.806;2023-05-07T03:04:31;1.15;;;0.80;;
50851;SDS011;43953;45.508;-122.806;2023-05-07T03:05:02;1.85;;;0.60;;
50851;SDS011;43953;45.508;-122.806;2023-05-07T03:05:34;2.00;;;0.60;;
50851;SDS011;43953;45.508;-122.806;2023-05-07T03:06:06;1.17;;;0.60;;
50851;SDS011;43953;45.508;-122.806;2023-05-07T03:06:38;1.10;;;0.85;;
50851;SDS011;43953;45.508;-122.806;2023-05-07T03:07:10;1.50;;;0.75;;